createdAt,value
2022-10-22T00:00:22.367Z,42.20
2022-10-22T00:05:42.891Z,45.45
2022-10-22T00:11:21.814Z,35.67
2022-10-22T00:16:42.376Z,39.30
2022-10-22T00:22:05.811Z,44.10
2022-10-22T00:27:26.427Z,35.42
2022-10-22T00:32:46.784Z,45.42
2022-10-22T00:38:07.564Z,46.20
2022-10-22T00:43:28.283Z,45.80
2022-10-22T00:48:49.641Z,44.67
2022-10-22T00:54:10.803Z,44.70
2022-10-22T00:59:31.807Z,42.05
2022-10-22T01:04:52.602Z,42.95
2022-10-22T01:10:19.219Z,70.07
2022-10-22T01:15:53.764Z,174.93
2022-10-22T01:21:25.189Z,170.83
2022-10-22T01:27:10.813Z,195.38
2022-10-22T01:32:37.045Z,244.02
2022-10-22T01:38:03.643Z,180.85
2022-10-22T01:43:25.739Z,153.07
2022-10-22T01:49:25.496Z,182.65
2022-10-22T01:54:59.699Z,195.77
2022-10-22T02:00:20.709Z,206.32
2022-10-22T02:05:49.063Z,172.50
2022-10-22T02:11:12.743Z,260.95
2022-10-22T02:16:41.587Z,181.70
2022-10-22T02:22:02.926Z,215.65
2022-10-22T02:27:30.358Z,137.65
2022-10-22T02:33:08.542Z,165.02
2022-10-22T02:38:31.078Z,132.80
2022-10-22T02:43:54.970Z,224.82
2022-10-22T02:49:15.692Z,115.57
2022-10-22T02:54:36.559Z,143.77
2022-10-22T02:59:57.052Z,132.00
2022-10-22T03:05:18.296Z,129.57
2022-10-22T03:10:38.768Z,136.05
2022-10-22T03:15:59.699Z,136.77
2022-10-22T03:21:33.986Z,166.48
2022-10-22T03:26:54.641Z,96.70
2022-10-22T03:32:15.183Z,194.70
2022-10-22T03:37:37.613Z,124.13
2022-10-22T03:42:58.787Z,127.63
2022-10-22T03:48:19.632Z,109.13
2022-10-22T03:53:40.593Z,61.63
2022-10-22T03:59:02.251Z,46.35
2022-10-22T04:04:22.874Z,63.42
2022-10-22T04:09:43.675Z,88.13
2022-10-22T04:15:05.478Z,109.65
2022-10-22T04:20:27.910Z,94.88
2022-10-22T04:25:48.394Z,101.10
2022-10-22T04:31:18.482Z,95.60
2022-10-22T04:36:38.675Z,140.55
2022-10-22T04:41:59.167Z,122.75
2022-10-22T04:47:19.923Z,156.68
2022-10-22T04:52:40.675Z,147.73
2022-10-22T04:58:01.352Z,178.20
2022-10-22T05:03:21.577Z,152.73
2022-10-22T05:08:43.565Z,134.85
2022-10-22T05:14:06.092Z,93.65
2022-10-22T05:19:29.391Z,135.38
2022-10-22T05:24:50.252Z,68.93
2022-10-22T05:30:11.730Z,44.28
2022-10-22T05:35:32.729Z,53.63
2022-10-22T05:41:05.757Z,50.42
2022-10-22T05:46:29.570Z,52.42
2022-10-22T05:51:49.958Z,74.40
2022-10-22T05:57:10.743Z,53.60
2022-10-22T06:02:31.767Z,50.00
2022-10-22T06:07:52.687Z,55.47
2022-10-22T06:13:13.498Z,79.38
2022-10-22T06:18:34.712Z,110.10
2022-10-22T06:23:59.566Z,91.28
2022-10-22T06:29:20.521Z,137.75
2022-10-22T06:34:41.141Z,114.07
2022-10-22T06:40:01.311Z,95.85
2022-10-22T06:45:21.587Z,76.65
2022-10-22T06:50:42.020Z,75.00
2022-10-22T06:56:10.418Z,176.00
2022-10-22T07:01:33.581Z,215.35
2022-10-22T07:06:57.358Z,133.05
2022-10-22T07:12:17.823Z,105.18
2022-10-22T07:23:03.831Z,118.60
2022-10-22T07:28:25.147Z,128.48
2022-10-22T07:33:45.999Z,100.47
2022-10-22T07:39:06.667Z,172.82
2022-10-22T07:44:27.215Z,80.43
2022-10-22T07:49:47.566Z,68.50
2022-10-22T07:55:08.743Z,50.22
2022-10-22T08:00:29.229Z,53.33
2022-10-22T08:05:51.339Z,34.97
2022-10-22T08:11:12.078Z,53.60
2022-10-22T08:16:32.541Z,33.95
2022-10-22T08:21:53.315Z,39.35
2022-10-22T08:27:14.248Z,37.58
2022-10-22T08:32:34.581Z,32.70
2022-10-22T08:37:55.036Z,35.25
2022-10-22T08:43:41.742Z,33.53
2022-10-22T08:49:05.579Z,33.30
2022-10-22T08:54:43.182Z,31.87
2022-10-22T09:00:15.264Z,28.45
2022-10-22T09:06:13.326Z,32.80
2022-10-22T09:11:39.754Z,33.15
2022-10-22T09:17:28.612Z,30.00
2022-10-22T09:23:18.032Z,27.08
2022-10-22T09:28:38.732Z,27.73
2022-10-22T09:34:05.714Z,24.45
2022-10-22T09:46:56.910Z,18.85
2022-10-22T09:52:28.830Z,24.75
2022-10-22T09:57:58.299Z,17.75
2022-10-22T10:03:22.310Z,15.48
2022-10-22T10:08:42.929Z,20.10
2022-10-22T10:14:13.715Z,13.15
2022-10-22T10:19:43.435Z,15.35
2022-10-22T10:25:13.357Z,13.15
2022-10-22T10:30:44.639Z,16.30
2022-10-22T10:36:27.585Z,13.82
2022-10-22T10:42:06.722Z,12.02
2022-10-22T10:47:30.172Z,13.32
2022-10-22T10:53:03.714Z,11.27
2022-10-22T10:58:39.106Z,10.57
2022-10-22T11:04:21.154Z,7.70
2022-10-22T11:10:03.458Z,11.50
2022-10-22T11:15:37.749Z,9.93
2022-10-22T11:21:18.872Z,15.48
2022-10-22T11:27:05.391Z,11.15
2022-10-22T11:32:27.333Z,19.27
2022-10-22T11:37:49.252Z,10.93
2022-10-22T11:43:25.427Z,10.45
2022-10-22T11:49:01.928Z,10.85
2022-10-22T11:54:42.829Z,16.17
2022-10-22T12:00:28.289Z,12.63
2022-10-22T12:06:12.174Z,10.20
2022-10-22T12:11:37.647Z,14.95
2022-10-22T12:17:10.118Z,14.70
2022-10-22T12:22:32.902Z,12.95
2022-10-22T12:27:57.190Z,14.95
2022-10-22T12:33:22.756Z,18.70
2022-10-22T12:38:47.193Z,15.70
2022-10-22T12:44:10.919Z,18.60
2022-10-22T12:49:38.825Z,15.90
2022-10-22T12:54:59.618Z,17.27
2022-10-22T13:00:32.371Z,18.05
2022-10-22T13:05:52.979Z,20.67
2022-10-22T13:11:13.817Z,11.77
2022-10-22T13:22:00.288Z,12.05
2022-10-22T13:27:21.062Z,18.08
2022-10-22T13:32:42.019Z,10.80
2022-10-22T13:38:03.893Z,21.23
2022-10-22T13:43:32.212Z,13.07
2022-10-22T13:48:55.460Z,21.88
2022-10-22T13:54:22.646Z,18.37
2022-10-22T13:59:43.334Z,17.25
2022-10-22T14:05:08.572Z,22.40
2022-10-22T14:10:28.898Z,13.45
2022-10-22T14:15:53.183Z,27.85
2022-10-22T14:21:16.851Z,21.55
2022-10-22T14:26:37.366Z,25.70
2022-10-22T14:31:57.774Z,26.25
2022-10-22T14:37:20.526Z,17.08
2022-10-22T14:42:43.176Z,19.88
2022-10-22T14:48:04.260Z,29.60
2022-10-22T14:53:24.617Z,16.98
2022-10-22T14:58:46.592Z,16.00
2022-10-22T15:04:07.332Z,13.48
2022-10-22T15:09:27.852Z,18.80
2022-10-22T15:14:48.379Z,13.88
2022-10-22T15:20:09.887Z,13.02
2022-10-22T15:25:30.627Z,20.50
2022-10-22T15:30:59.628Z,15.75
2022-10-22T15:36:20.104Z,17.00
2022-10-22T15:41:40.975Z,17.88
2022-10-22T15:47:04.072Z,12.43
2022-10-22T15:52:25.436Z,19.73
2022-10-22T15:57:46.319Z,16.20
2022-10-22T16:03:07.684Z,16.17
2022-10-22T16:08:28.434Z,20.08
2022-10-22T16:13:53.792Z,17.00
2022-10-22T16:19:16.469Z,21.50
2022-10-22T16:24:40.901Z,20.80
2022-10-22T16:30:01.407Z,28.33
2022-10-22T16:35:22.260Z,21.15
2022-10-22T16:40:42.611Z,23.27
2022-10-22T16:46:04.033Z,20.50
2022-10-22T16:51:26.408Z,24.63
2022-10-22T16:56:47.080Z,23.60
2022-10-22T17:02:12.120Z,21.58
2022-10-22T17:07:32.785Z,24.95
2022-10-22T17:12:53.565Z,12.57
2022-10-22T17:18:14.456Z,9.07
2022-10-22T17:23:35.493Z,9.48
2022-10-22T17:28:56.141Z,21.55
2022-10-22T17:34:18.382Z,13.50
2022-10-22T17:39:39.596Z,6.00
2022-10-22T17:45:00.744Z,11.90
2022-10-22T17:50:21.646Z,10.25
2022-10-22T17:55:42.006Z,6.43
2022-10-22T18:01:03.281Z,6.57
2022-10-22T18:06:23.685Z,15.45
2022-10-22T18:11:44.910Z,9.70
2022-10-22T18:17:05.509Z,22.00
2022-10-22T18:22:26.676Z,23.02
2022-10-22T18:27:47.872Z,17.30
2022-10-22T18:33:11.795Z,17.67
2022-10-22T18:44:02.273Z,19.50
2022-10-22T18:49:25.668Z,24.80
2022-10-22T18:54:46.277Z,23.63
2022-10-22T19:00:07.858Z,21.65
2022-10-22T19:05:28.723Z,17.98
2022-10-22T19:10:49.185Z,22.45
2022-10-22T19:16:18.374Z,11.40
2022-10-22T19:21:39.191Z,14.02
2022-10-22T19:26:59.664Z,22.60
2022-10-22T19:32:20.993Z,14.57
2022-10-22T19:37:46.187Z,27.02
2022-10-22T19:43:08.943Z,16.08
2022-10-22T19:48:29.976Z,32.22
2022-10-22T19:53:51.037Z,22.63
2022-10-22T19:59:12.166Z,34.08
2022-10-22T20:04:32.625Z,19.55
2022-10-22T20:09:53.755Z,23.95
2022-10-22T20:15:14.259Z,30.73
2022-10-22T20:20:38.142Z,24.17
2022-10-22T20:25:58.496Z,21.80
2022-10-22T20:31:21.330Z,29.88
2022-10-22T20:36:41.923Z,17.98
2022-10-22T20:42:02.726Z,23.00
2022-10-22T20:47:30.394Z,26.10
2022-10-22T20:53:00.076Z,24.38
2022-10-22T20:58:24.461Z,21.00
2022-10-22T21:03:51.996Z,24.77
2022-10-22T21:09:14.555Z,14.10
2022-10-22T21:14:35.370Z,25.52
2022-10-22T21:19:56.441Z,15.52
2022-10-22T21:25:17.239Z,23.33
2022-10-22T21:30:44.743Z,28.33
2022-10-22T21:36:06.894Z,17.27
2022-10-22T21:41:27.408Z,23.55
2022-10-22T21:46:47.939Z,19.90
2022-10-22T21:52:09.047Z,20.48
2022-10-22T21:57:29.970Z,20.50
2022-10-22T22:02:50.936Z,12.23
2022-10-22T22:08:11.441Z,21.08
2022-10-22T22:13:33.613Z,16.70
2022-10-22T22:18:55.488Z,20.85
2022-10-22T22:24:16.644Z,24.00
2022-10-22T22:29:37.257Z,7.90
2022-10-22T22:34:58.512Z,36.80
2022-10-22T22:40:19.310Z,14.30
2022-10-22T22:45:40.754Z,17.58
2022-10-22T22:51:03.224Z,19.52
2022-10-22T22:56:25.546Z,14.88
2022-10-22T23:01:48.175Z,15.10
2022-10-22T23:07:08.723Z,14.23
2022-10-22T23:12:29.232Z,19.65
2022-10-22T23:17:50.090Z,10.52
2022-10-22T23:23:10.597Z,14.68
2022-10-22T23:28:31.214Z,22.60
2022-10-22T23:33:52.123Z,19.70
2022-10-22T23:39:15.856Z,14.85
2022-10-22T23:44:36.453Z,24.00
2022-10-22T23:49:57.058Z,16.55
2022-10-22T23:55:19.163Z,11.90
